Terneuzen, Netherlands
Current Conditions -  °F | °C
As of 4:55 AM on Thursday 29 Jan 2015 (Local Time) from EHFS Reporting Station
Scattered Clouds Scattered Clouds  
Wind Chill: 29°   Ceiling: Unl
Heat Index: 41°   Visibility: 6mi
Dew Point: 32°   Wind: 33mph
Humidity: 70%   Direction: 250°WSW
Pressure: 29.32"   Gusts: NA
Location:  51.34°N, 3.83°E
Report Text: EHFS 290355Z AUTO 25029KT 9999 FEW028/// SCT033/// 05/00 Q0993
Loading
Personal Weather Stations






























Interactive Weather Map New forecast layout! Learn more

10-Day Weather Forecast

Advertisements
Track Severe Weather on mobile